< < Back
Terminal Aerodrome Forecast


Current Version              Previous Versions:   1  2  3  4  5  6  7  8  9  

Terminal Aerodrome Forecast

555
FTUS42 KMLB 290527
TAFMCO
TAF
KMCO 290527Z 2906/3006 00000KT P6SM FEW045 FEW070 SCT300
     FM291400 26005KT P6SM SCT030
     FM292100 06009KT P6SM SCT060 BKN250=

Latest METAR

923
SAUS70 KWBC 290900 RRD
MTRMCO
METAR KMCO 290853Z 06004KT 10SM FEW042 FEW300 23/21 A3004 RMK AO2 SLP169
T02280206 55007


USA.gov is the U.S. government's official web portal to all federal, state and local government web resources and services.